sensor_id;sensor_type;location;lat;lon;timestamp;P1;durP1;ratioP1;P2;durP2;ratioP2
83125;SDS011;73488;47.234;-1.540;2024-01-30T00:02:09;10.52;;;7.72;;
83125;SDS011;73488;47.234;-1.540;2024-01-30T00:04:34;11.07;;;7.75;;
83125;SDS011;73488;47.234;-1.540;2024-01-30T00:07:00;12.93;;;7.07;;
83125;SDS011;73488;47.234;-1.540;2024-01-30T00:09:25;10.82;;;7.22;;
83125;SDS011;73488;47.234;-1.540;2024-01-30T00:11:50;9.95;;;6.93;;
83125;SDS011;73488;47.234;-1.540;2024-01-30T00:14:16;11.23;;;6.50;;
83125;SDS011;73488;47.234;-1.540;2024-01-30T00:16:41;9.23;;;6.60;;
83125;SDS011;73488;47.234;-1.540;2024-01-30T00:19:07;10.77;;;7.45;;
83125;SDS011;73488;47.234;-1.540;2024-01-30T00:21:33;9.63;;;7.00;;
83125;SDS011;73488;47.234;-1.540;2024-01-30T00:23:58;10.55;;;7.10;;
83125;SDS011;73488;47.234;-1.540;2024-01-30T00:26:24;11.40;;;7.45;;
83125;SDS011;73488;47.234;-1.540;2024-01-30T00:28:49;8.35;;;6.35;;
83125;SDS011;73488;47.234;-1.540;2024-01-30T00:31:15;10.15;;;6.38;;
83125;SDS011;73488;47.234;-1.540;2024-01-30T00:33:40;12.02;;;7.35;;
83125;SDS011;73488;47.234;-1.540;2024-01-30T00:36:07;10.82;;;7.20;;
83125;SDS011;73488;47.234;-1.540;2024-01-30T00:38:33;9.98;;;6.55;;
83125;SDS011;73488;47.234;-1.540;2024-01-30T00:40:58;9.20;;;6.55;;
83125;SDS011;73488;47.234;-1.540;2024-01-30T00:43:24;9.05;;;6.57;;
83125;SDS011;73488;47.234;-1.540;2024-01-30T00:45:53;9.48;;;6.43;;
83125;SDS011;73488;47.234;-1.540;2024-01-30T00:48:19;9.23;;;6.40;;
83125;SDS011;73488;47.234;-1.540;2024-01-30T00:50:44;9.27;;;6.57;;
83125;SDS011;73488;47.234;-1.540;2024-01-30T00:53:09;8.48;;;6.20;;
83125;SDS011;73488;47.234;-1.540;2024-01-30T00:55:35;10.45;;;6.40;;
83125;SDS011;73488;47.234;-1.540;2024-01-30T00:58:01;7.95;;;5.22;;
83125;SDS011;73488;47.234;-1.540;2024-01-30T01:00:26;11.93;;;6.28;;
83125;SDS011;73488;47.234;-1.540;2024-01-30T01:02:55;8.45;;;6.53;;
83125;SDS011;73488;47.234;-1.540;2024-01-30T01:05:20;9.80;;;6.88;;
83125;SDS011;73488;47.234;-1.540;2024-01-30T01:07:46;9.00;;;6.88;;
83125;SDS011;73488;47.234;-1.540;2024-01-30T01:10:13;8.80;;;5.65;;
83125;SDS011;73488;47.234;-1.540;2024-01-30T01:12:39;8.60;;;6.20;;
83125;SDS011;73488;47.234;-1.540;2024-01-30T01:15:05;8.48;;;6.03;;
83125;SDS011;73488;47.234;-1.540;2024-01-30T01:17:34;7.75;;;5.93;;
83125;SDS011;73488;47.234;-1.540;2024-01-30T01:19:59;7.43;;;5.88;;
83125;SDS011;73488;47.234;-1.540;2024-01-30T01:22:25;10.90;;;6.90;;
83125;SDS011;73488;47.234;-1.540;2024-01-30T01:24:50;9.02;;;6.15;;
83125;SDS011;73488;47.234;-1.540;2024-01-30T01:27:16;8.73;;;6.10;;
83125;SDS011;73488;47.234;-1.540;2024-01-30T01:29:41;11.35;;;6.75;;
83125;SDS011;73488;47.234;-1.540;2024-01-30T01:32:07;8.85;;;5.85;;
83125;SDS011;73488;47.234;-1.540;2024-01-30T01:34:33;10.13;;;6.47;;
83125;SDS011;73488;47.234;-1.540;2024-01-30T01:36:58;9.07;;;6.53;;
83125;SDS011;73488;47.234;-1.540;2024-01-30T01:39:24;8.00;;;6.25;;
83125;SDS011;73488;47.234;-1.540;2024-01-30T01:41:49;7.78;;;6.15;;
83125;SDS011;73488;47.234;-1.540;2024-01-30T01:44:15;11.32;;;6.43;;
83125;SDS011;73488;47.234;-1.540;2024-01-30T01:46:40;10.80;;;6.45;;
83125;SDS011;73488;47.234;-1.540;2024-01-30T01:49:06;8.93;;;6.40;;
83125;SDS011;73488;47.234;-1.540;2024-01-30T01:51:33;8.77;;;5.45;;
83125;SDS011;73488;47.234;-1.540;2024-01-30T01:54:00;8.45;;;5.72;;
83125;SDS011;73488;47.234;-1.540;2024-01-30T01:58:54;7.80;;;6.13;;
83125;SDS011;73488;47.234;-1.540;2024-01-30T02:01:20;9.90;;;6.30;;
83125;SDS011;73488;47.234;-1.540;2024-01-30T02:03:46;9.40;;;6.20;;
83125;SDS011;73488;47.234;-1.540;2024-01-30T02:06:14;8.52;;;6.20;;
83125;SDS011;73488;47.234;-1.540;2024-01-30T02:08:40;7.72;;;6.47;;
83125;SDS011;73488;47.234;-1.540;2024-01-30T02:11:05;6.68;;;5.50;;
83125;SDS011;73488;47.234;-1.540;2024-01-30T02:13:31;7.78;;;5.43;;
83125;SDS011;73488;47.234;-1.540;2024-01-30T02:15:56;9.07;;;6.13;;
83125;SDS011;73488;47.234;-1.540;2024-01-30T02:18:22;8.30;;;5.90;;
83125;SDS011;73488;47.234;-1.540;2024-01-30T02:20:47;7.35;;;4.78;;
83125;SDS011;73488;47.234;-1.540;2024-01-30T02:23:13;8.13;;;6.38;;
83125;SDS011;73488;47.234;-1.540;2024-01-30T02:25:42;7.93;;;5.85;;
83125;SDS011;73488;47.234;-1.540;2024-01-30T02:28:12;8.23;;;6.25;;
83125;SDS011;73488;47.234;-1.540;2024-01-30T02:33:09;8.23;;;6.10;;
83125;SDS011;73488;47.234;-1.540;2024-01-30T02:35:35;6.20;;;5.50;;
83125;SDS011;73488;47.234;-1.540;2024-01-30T02:38:00;8.80;;;5.97;;
83125;SDS011;73488;47.234;-1.540;2024-01-30T02:40:26;7.00;;;5.53;;
83125;SDS011;73488;47.234;-1.540;2024-01-30T02:42:51;8.50;;;4.90;;
83125;SDS011;73488;47.234;-1.540;2024-01-30T02:45:17;7.72;;;5.38;;
83125;SDS011;73488;47.234;-1.540;2024-01-30T02:47:43;8.10;;;4.88;;
83125;SDS011;73488;47.234;-1.540;2024-01-30T02:50:08;8.57;;;5.57;;
83125;SDS011;73488;47.234;-1.540;2024-01-30T02:52:34;8.88;;;5.25;;
83125;SDS011;73488;47.234;-1.540;2024-01-30T02:54:59;7.53;;;5.55;;
83125;SDS011;73488;47.234;-1.540;2024-01-30T02:57:25;8.18;;;5.93;;
83125;SDS011;73488;47.234;-1.540;2024-01-30T02:59:50;7.25;;;5.82;;
83125;SDS011;73488;47.234;-1.540;2024-01-30T03:02:16;6.95;;;5.50;;
83125;SDS011;73488;47.234;-1.540;2024-01-30T03:04:42;6.72;;;5.28;;
83125;SDS011;73488;47.234;-1.540;2024-01-30T03:07:07;8.07;;;4.45;;
83125;SDS011;73488;47.234;-1.540;2024-01-30T03:09:33;7.38;;;5.38;;
83125;SDS011;73488;47.234;-1.540;2024-01-30T03:11:58;8.10;;;5.90;;
83125;SDS011;73488;47.234;-1.540;2024-01-30T03:14:24;9.32;;;5.47;;
83125;SDS011;73488;47.234;-1.540;2024-01-30T03:16:49;6.35;;;4.93;;
83125;SDS011;73488;47.234;-1.540;2024-01-30T03:19:15;7.60;;;5.35;;
83125;SDS011;73488;47.234;-1.540;2024-01-30T03:21:40;9.27;;;5.90;;
83125;SDS011;73488;47.234;-1.540;2024-01-30T03:24:06;8.65;;;5.70;;
83125;SDS011;73488;47.234;-1.540;2024-01-30T03:26:31;7.20;;;5.18;;
83125;SDS011;73488;47.234;-1.540;2024-01-30T03:28:57;7.25;;;5.03;;
83125;SDS011;73488;47.234;-1.540;2024-01-30T03:31:22;7.60;;;5.90;;
83125;SDS011;73488;47.234;-1.540;2024-01-30T03:33:48;6.10;;;3.83;;
83125;SDS011;73488;47.234;-1.540;2024-01-30T03:36:14;6.57;;;4.95;;
83125;SDS011;73488;47.234;-1.540;2024-01-30T03:38:40;5.90;;;4.35;;
83125;SDS011;73488;47.234;-1.540;2024-01-30T03:41:07;8.15;;;5.97;;
83125;SDS011;73488;47.234;-1.540;2024-01-30T03:43:34;8.00;;;5.32;;
83125;SDS011;73488;47.234;-1.540;2024-01-30T03:45:59;8.23;;;5.38;;
83125;SDS011;73488;47.234;-1.540;2024-01-30T03:48:26;8.45;;;5.40;;
83125;SDS011;73488;47.234;-1.540;2024-01-30T03:50:51;6.15;;;5.03;;
83125;SDS011;73488;47.234;-1.540;2024-01-30T03:53:17;7.05;;;5.57;;
83125;SDS011;73488;47.234;-1.540;2024-01-30T03:55:42;6.40;;;5.00;;
83125;SDS011;73488;47.234;-1.540;2024-01-30T03:58:08;8.13;;;5.50;;
83125;SDS011;73488;47.234;-1.540;2024-01-30T04:00:34;7.97;;;5.40;;
83125;SDS011;73488;47.234;-1.540;2024-01-30T04:03:00;6.97;;;4.90;;
83125;SDS011;73488;47.234;-1.540;2024-01-30T04:05:25;6.75;;;4.72;;
83125;SDS011;73488;47.234;-1.540;2024-01-30T04:07:51;6.47;;;5.13;;
83125;SDS011;73488;47.234;-1.540;2024-01-30T04:10:16;7.15;;;5.00;;
83125;SDS011;73488;47.234;-1.540;2024-01-30T04:12:42;7.00;;;4.72;;
83125;SDS011;73488;47.234;-1.540;2024-01-30T04:15:07;7.93;;;5.35;;
83125;SDS011;73488;47.234;-1.540;2024-01-30T04:17:33;7.07;;;5.00;;
83125;SDS011;73488;47.234;-1.540;2024-01-30T04:19:58;8.02;;;4.88;;
83125;SDS011;73488;47.234;-1.540;2024-01-30T04:22:24;7.10;;;5.20;;
83125;SDS011;73488;47.234;-1.540;2024-01-30T04:24:49;6.95;;;5.57;;
83125;SDS011;73488;47.234;-1.540;2024-01-30T04:27:15;6.82;;;4.13;;
83125;SDS011;73488;47.234;-1.540;2024-01-30T04:29:40;7.72;;;4.97;;
83125;SDS011;73488;47.234;-1.540;2024-01-30T04:32:06;6.85;;;4.78;;
83125;SDS011;73488;47.234;-1.540;2024-01-30T04:34:31;6.95;;;4.85;;
83125;SDS011;73488;47.234;-1.540;2024-01-30T04:36:57;7.65;;;3.90;;
83125;SDS011;73488;47.234;-1.540;2024-01-30T04:39:22;9.02;;;5.60;;
83125;SDS011;73488;47.234;-1.540;2024-01-30T04:41:48;6.93;;;5.18;;
83125;SDS011;73488;47.234;-1.540;2024-01-30T04:44:13;5.32;;;4.38;;
83125;SDS011;73488;47.234;-1.540;2024-01-30T04:46:39;6.78;;;4.63;;
83125;SDS011;73488;47.234;-1.540;2024-01-30T04:49:05;5.57;;;4.80;;
83125;SDS011;73488;47.234;-1.540;2024-01-30T04:51:32;5.80;;;4.55;;
83125;SDS011;73488;47.234;-1.540;2024-01-30T04:53:58;7.45;;;4.80;;
83125;SDS011;73488;47.234;-1.540;2024-01-30T04:56:24;6.97;;;3.95;;
83125;SDS011;73488;47.234;-1.540;2024-01-30T04:58:49;7.40;;;4.72;;
83125;SDS011;73488;47.234;-1.540;2024-01-30T05:01:17;7.38;;;5.85;;
83125;SDS011;73488;47.234;-1.540;2024-01-30T05:03:43;6.32;;;4.40;;
83125;SDS011;73488;47.234;-1.540;2024-01-30T05:06:08;7.75;;;4.82;;
83125;SDS011;73488;47.234;-1.540;2024-01-30T05:08:34;5.60;;;3.80;;
83125;SDS011;73488;47.234;-1.540;2024-01-30T05:11:02;4.38;;;3.47;;
83125;SDS011;73488;47.234;-1.540;2024-01-30T05:13:29;5.95;;;4.40;;
83125;SDS011;73488;47.234;-1.540;2024-01-30T05:15:55;6.10;;;4.63;;
83125;SDS011;73488;47.234;-1.540;2024-01-30T05:18:21;6.45;;;5.10;;
83125;SDS011;73488;47.234;-1.540;2024-01-30T05:20:46;5.22;;;4.53;;
83125;SDS011;73488;47.234;-1.540;2024-01-30T05:23:11;5.45;;;4.63;;
83125;SDS011;73488;47.234;-1.540;2024-01-30T05:25:37;7.00;;;4.22;;
83125;SDS011;73488;47.234;-1.540;2024-01-30T05:28:02;5.95;;;4.22;;
83125;SDS011;73488;47.234;-1.540;2024-01-30T05:30:28;7.18;;;4.90;;
83125;SDS011;73488;47.234;-1.540;2024-01-30T05:32:53;5.75;;;4.55;;
83125;SDS011;73488;47.234;-1.540;2024-01-30T05:35:19;5.57;;;3.88;;
83125;SDS011;73488;47.234;-1.540;2024-01-30T05:37:47;5.10;;;4.30;;
83125;SDS011;73488;47.234;-1.540;2024-01-30T05:40:15;5.15;;;3.80;;
83125;SDS011;73488;47.234;-1.540;2024-01-30T05:42:41;7.07;;;4.90;;
83125;SDS011;73488;47.234;-1.540;2024-01-30T05:45:07;6.93;;;4.13;;
83125;SDS011;73488;47.234;-1.540;2024-01-30T05:47:33;5.05;;;3.97;;
83125;SDS011;73488;47.234;-1.540;2024-01-30T05:49:59;7.22;;;4.00;;
83125;SDS011;73488;47.234;-1.540;2024-01-30T05:52:24;5.20;;;4.65;;
83125;SDS011;73488;47.234;-1.540;2024-01-30T05:54:50;6.38;;;4.13;;
83125;SDS011;73488;47.234;-1.540;2024-01-30T05:57:15;4.43;;;3.78;;
83125;SDS011;73488;47.234;-1.540;2024-01-30T05:59:41;5.18;;;3.78;;
83125;SDS011;73488;47.234;-1.540;2024-01-30T06:02:06;6.32;;;4.50;;
83125;SDS011;73488;47.234;-1.540;2024-01-30T06:04:32;5.13;;;3.95;;
83125;SDS011;73488;47.234;-1.540;2024-01-30T06:06:57;4.63;;;3.83;;
83125;SDS011;73488;47.234;-1.540;2024-01-30T06:09:23;5.07;;;4.32;;
83125;SDS011;73488;47.234;-1.540;2024-01-30T06:11:48;6.72;;;3.72;;
83125;SDS011;73488;47.234;-1.540;2024-01-30T06:14:14;4.95;;;3.50;;
83125;SDS011;73488;47.234;-1.540;2024-01-30T06:16:39;5.80;;;4.00;;
83125;SDS011;73488;47.234;-1.540;2024-01-30T06:19:04;4.28;;;3.88;;
83125;SDS011;73488;47.234;-1.540;2024-01-30T06:21:31;5.00;;;3.40;;
83125;SDS011;73488;47.234;-1.540;2024-01-30T06:23:57;5.82;;;4.38;;
83125;SDS011;73488;47.234;-1.540;2024-01-30T06:26:22;4.88;;;3.20;;
83125;SDS011;73488;47.234;-1.540;2024-01-30T06:28:48;4.85;;;3.72;;
83125;SDS011;73488;47.234;-1.540;2024-01-30T06:31:13;3.63;;;3.33;;
83125;SDS011;73488;47.234;-1.540;2024-01-30T06:33:39;4.13;;;3.38;;
83125;SDS011;73488;47.234;-1.540;2024-01-30T06:36:07;4.05;;;3.13;;
83125;SDS011;73488;47.234;-1.540;2024-01-30T06:38:32;4.00;;;2.75;;
83125;SDS011;73488;47.234;-1.540;2024-01-30T06:40:58;3.65;;;3.20;;
83125;SDS011;73488;47.234;-1.540;2024-01-30T06:43:23;4.32;;;3.45;;
83125;SDS011;73488;47.234;-1.540;2024-01-30T06:45:49;5.18;;;3.13;;
83125;SDS011;73488;47.234;-1.540;2024-01-30T06:48:15;4.38;;;2.95;;
83125;SDS011;73488;47.234;-1.540;2024-01-30T06:50:41;4.57;;;2.58;;
83125;SDS011;73488;47.234;-1.540;2024-01-30T06:53:06;3.65;;;2.88;;
83125;SDS011;73488;47.234;-1.540;2024-01-30T06:55:31;4.53;;;3.42;;
83125;SDS011;73488;47.234;-1.540;2024-01-30T06:57:57;3.63;;;2.75;;
83125;SDS011;73488;47.234;-1.540;2024-01-30T07:00:22;4.30;;;3.25;;
83125;SDS011;73488;47.234;-1.540;2024-01-30T07:02:48;6.40;;;3.50;;
83125;SDS011;73488;47.234;-1.540;2024-01-30T07:05:14;7.03;;;3.42;;
83125;SDS011;73488;47.234;-1.540;2024-01-30T07:07:40;5.43;;;2.63;;
83125;SDS011;73488;47.234;-1.540;2024-01-30T07:10:06;4.95;;;3.75;;
83125;SDS011;73488;47.234;-1.540;2024-01-30T07:12:32;5.50;;;3.28;;
83125;SDS011;73488;47.234;-1.540;2024-01-30T07:14:58;6.13;;;3.13;;
83125;SDS011;73488;47.234;-1.540;2024-01-30T07:17:24;5.15;;;3.25;;
83125;SDS011;73488;47.234;-1.540;2024-01-30T07:19:50;5.57;;;3.35;;
83125;SDS011;73488;47.234;-1.540;2024-01-30T07:22:15;7.72;;;2.83;;
83125;SDS011;73488;47.234;-1.540;2024-01-30T07:24:44;7.38;;;2.65;;
83125;SDS011;73488;47.234;-1.540;2024-01-30T07:27:12;7.65;;;3.20;;
83125;SDS011;73488;47.234;-1.540;2024-01-30T07:29:38;7.70;;;2.58;;
83125;SDS011;73488;47.234;-1.540;2024-01-30T07:32:03;5.82;;;2.35;;
83125;SDS011;73488;47.234;-1.540;2024-01-30T07:34:29;10.90;;;3.45;;
83125;SDS011;73488;47.234;-1.540;2024-01-30T07:36:54;5.35;;;3.53;;
83125;SDS011;73488;47.234;-1.540;2024-01-30T07:39:20;7.30;;;3.28;;
83125;SDS011;73488;47.234;-1.540;2024-01-30T07:41:45;4.80;;;2.63;;
83125;SDS011;73488;47.234;-1.540;2024-01-30T07:44:11;7.78;;;3.15;;
83125;SDS011;73488;47.234;-1.540;2024-01-30T07:46:36;5.70;;;2.92;;
83125;SDS011;73488;47.234;-1.540;2024-01-30T07:49:02;8.10;;;3.30;;
83125;SDS011;73488;47.234;-1.540;2024-01-30T07:51:27;6.95;;;3.53;;
83125;SDS011;73488;47.234;-1.540;2024-01-30T07:53:54;8.32;;;3.13;;
83125;SDS011;73488;47.234;-1.540;2024-01-30T07:56:20;6.07;;;2.78;;
83125;SDS011;73488;47.234;-1.540;2024-01-30T07:58:45;5.57;;;2.83;;
83125;SDS011;73488;47.234;-1.540;2024-01-30T08:01:10;4.38;;;2.55;;
83125;SDS011;73488;47.234;-1.540;2024-01-30T08:03:36;6.80;;;2.20;;
83125;SDS011;73488;47.234;-1.540;2024-01-30T08:06:04;6.10;;;2.65;;
83125;SDS011;73488;47.234;-1.540;2024-01-30T08:08:31;4.85;;;2.30;;
83125;SDS011;73488;47.234;-1.540;2024-01-30T08:10:57;5.55;;;2.92;;
83125;SDS011;73488;47.234;-1.540;2024-01-30T08:13:22;4.65;;;2.47;;
83125;SDS011;73488;47.234;-1.540;2024-01-30T08:15:48;4.82;;;2.50;;
83125;SDS011;73488;47.234;-1.540;2024-01-30T08:18:13;4.78;;;2.90;;
83125;SDS011;73488;47.234;-1.540;2024-01-30T08:20:39;8.10;;;2.92;;
83125;SDS011;73488;47.234;-1.540;2024-01-30T08:23:04;15.32;;;3.05;;
83125;SDS011;73488;47.234;-1.540;2024-01-30T08:25:29;6.47;;;2.75;;
83125;SDS011;73488;47.234;-1.540;2024-01-30T08:27:55;5.93;;;2.65;;
83125;SDS011;73488;47.234;-1.540;2024-01-30T08:30:22;4.50;;;2.65;;
83125;SDS011;73488;47.234;-1.540;2024-01-30T08:32:47;5.00;;;3.13;;
83125;SDS011;73488;47.234;-1.540;2024-01-30T08:35:13;6.32;;;2.47;;
83125;SDS011;73488;47.234;-1.540;2024-01-30T08:37:40;4.38;;;1.67;;
83125;SDS011;73488;47.234;-1.540;2024-01-30T08:40:06;4.70;;;2.63;;
83125;SDS011;73488;47.234;-1.540;2024-01-30T08:42:33;5.70;;;3.10;;
83125;SDS011;73488;47.234;-1.540;2024-01-30T08:44:59;4.78;;;2.25;;
83125;SDS011;73488;47.234;-1.540;2024-01-30T08:47:24;7.13;;;1.92;;
83125;SDS011;73488;47.234;-1.540;2024-01-30T08:49:50;4.57;;;2.53;;
83125;SDS011;73488;47.234;-1.540;2024-01-30T08:52:16;3.35;;;2.92;;
83125;SDS011;73488;47.234;-1.540;2024-01-30T08:54:42;5.57;;;3.05;;
83125;SDS011;73488;47.234;-1.540;2024-01-30T08:57:07;3.45;;;2.38;;
83125;SDS011;73488;47.234;-1.540;2024-01-30T08:59:33;3.63;;;2.83;;
83125;SDS011;73488;47.234;-1.540;2024-01-30T09:01:58;7.75;;;3.47;;
83125;SDS011;73488;47.234;-1.540;2024-01-30T09:04:24;3.72;;;2.38;;
83125;SDS011;73488;47.234;-1.540;2024-01-30T09:06:50;3.88;;;2.67;;
83125;SDS011;73488;47.234;-1.540;2024-01-30T09:09:15;4.88;;;2.72;;
83125;SDS011;73488;47.234;-1.540;2024-01-30T09:11:41;4.72;;;3.25;;
83125;SDS011;73488;47.234;-1.540;2024-01-30T09:14:06;4.95;;;3.17;;
83125;SDS011;73488;47.234;-1.540;2024-01-30T09:16:32;4.78;;;2.33;;
83125;SDS011;73488;47.234;-1.540;2024-01-30T09:18:57;6.13;;;2.72;;
83125;SDS011;73488;47.234;-1.540;2024-01-30T09:21:23;4.78;;;2.45;;
83125;SDS011;73488;47.234;-1.540;2024-01-30T09:23:48;5.22;;;2.58;;
83125;SDS011;73488;47.234;-1.540;2024-01-30T09:26:14;4.40;;;2.65;;
83125;SDS011;73488;47.234;-1.540;2024-01-30T09:28:39;3.55;;;2.53;;
83125;SDS011;73488;47.234;-1.540;2024-01-30T09:31:11;4.78;;;2.30;;
83125;SDS011;73488;47.234;-1.540;2024-01-30T09:33:39;3.80;;;2.55;;
83125;SDS011;73488;47.234;-1.540;2024-01-30T09:36:07;3.33;;;2.63;;
83125;SDS011;73488;47.234;-1.540;2024-01-30T09:38:33;4.30;;;2.90;;
83125;SDS011;73488;47.234;-1.540;2024-01-30T09:40:59;4.50;;;2.70;;
83125;SDS011;73488;47.234;-1.540;2024-01-30T09:43:26;3.60;;;2.53;;
83125;SDS011;73488;47.234;-1.540;2024-01-30T09:45:55;4.15;;;2.53;;
83125;SDS011;73488;47.234;-1.540;2024-01-30T09:48:21;4.03;;;2.30;;
83125;SDS011;73488;47.234;-1.540;2024-01-30T09:50:48;4.22;;;2.63;;
83125;SDS011;73488;47.234;-1.540;2024-01-30T09:53:13;4.10;;;1.63;;
83125;SDS011;73488;47.234;-1.540;2024-01-30T09:55:39;3.03;;;2.47;;
83125;SDS011;73488;47.234;-1.540;2024-01-30T10:00:33;4.30;;;2.63;;
83125;SDS011;73488;47.234;-1.540;2024-01-30T10:02:59;3.17;;;2.10;;
83125;SDS011;73488;47.234;-1.540;2024-01-30T10:05:26;4.78;;;2.58;;
83125;SDS011;73488;47.234;-1.540;2024-01-30T10:07:52;3.20;;;2.22;;
83125;SDS011;73488;47.234;-1.540;2024-01-30T10:10:18;2.58;;;2.00;;
83125;SDS011;73488;47.234;-1.540;2024-01-30T10:12:44;2.65;;;1.90;;
83125;SDS011;73488;47.234;-1.540;2024-01-30T10:15:09;3.47;;;2.38;;
83125;SDS011;73488;47.234;-1.540;2024-01-30T10:17:37;3.08;;;2.05;;
83125;SDS011;73488;47.234;-1.540;2024-01-30T10:20:04;2.78;;;2.08;;
83125;SDS011;73488;47.234;-1.540;2024-01-30T10:22:30;3.55;;;1.50;;
83125;SDS011;73488;47.234;-1.540;2024-01-30T10:24:55;3.70;;;1.55;;
83125;SDS011;73488;47.234;-1.540;2024-01-30T10:27:27;4.43;;;2.80;;
83125;SDS011;73488;47.234;-1.540;2024-01-30T10:29:52;2.97;;;1.83;;
83125;SDS011;73488;47.234;-1.540;2024-01-30T10:32:19;4.72;;;2.75;;
83125;SDS011;73488;47.234;-1.540;2024-01-30T10:34:45;4.45;;;1.80;;
83125;SDS011;73488;47.234;-1.540;2024-01-30T10:37:10;2.75;;;2.25;;
83125;SDS011;73488;47.234;-1.540;2024-01-30T10:39:43;3.67;;;2.00;;
83125;SDS011;73488;47.234;-1.540;2024-01-30T10:42:17;3.58;;;1.83;;
83125;SDS011;73488;47.234;-1.540;2024-01-30T10:47:18;2.90;;;2.00;;
83125;SDS011;73488;47.234;-1.540;2024-01-30T10:49:48;3.55;;;1.52;;
83125;SDS011;73488;47.234;-1.540;2024-01-30T10:52:13;2.67;;;1.85;;
83125;SDS011;73488;47.234;-1.540;2024-01-30T10:54:40;3.05;;;2.35;;
83125;SDS011;73488;47.234;-1.540;2024-01-30T10:57:08;2.40;;;1.70;;
83125;SDS011;73488;47.234;-1.540;2024-01-30T10:59:35;2.85;;;2.05;;
83125;SDS011;73488;47.234;-1.540;2024-01-30T11:02:01;4.90;;;3.35;;
83125;SDS011;73488;47.234;-1.540;2024-01-30T11:04:27;3.63;;;2.20;;
83125;SDS011;73488;47.234;-1.540;2024-01-30T11:06:52;3.03;;;1.83;;
83125;SDS011;73488;47.234;-1.540;2024-01-30T11:09:19;3.25;;;2.25;;
83125;SDS011;73488;47.234;-1.540;2024-01-30T11:14:16;2.90;;;2.00;;
83125;SDS011;73488;47.234;-1.540;2024-01-30T11:16:42;4.65;;;1.90;;
83125;SDS011;73488;47.234;-1.540;2024-01-30T11:19:10;3.15;;;1.75;;
83125;SDS011;73488;47.234;-1.540;2024-01-30T11:21:43;3.35;;;1.77;;
83125;SDS011;73488;47.234;-1.540;2024-01-30T11:24:08;2.15;;;1.80;;
83125;SDS011;73488;47.234;-1.540;2024-01-30T11:26:34;3.80;;;2.08;;
83125;SDS011;73488;47.234;-1.540;2024-01-30T11:29:03;3.20;;;2.08;;
83125;SDS011;73488;47.234;-1.540;2024-01-30T11:31:29;4.50;;;2.10;;
83125;SDS011;73488;47.234;-1.540;2024-01-30T11:33:55;3.20;;;1.90;;
83125;SDS011;73488;47.234;-1.540;2024-01-30T11:36:23;4.15;;;1.83;;
83125;SDS011;73488;47.234;-1.540;2024-01-30T11:38:50;3.42;;;1.77;;
83125;SDS011;73488;47.234;-1.540;2024-01-30T11:41:16;2.58;;;1.10;;
83125;SDS011;73488;47.234;-1.540;2024-01-30T11:43:43;2.83;;;1.90;;
83125;SDS011;73488;47.234;-1.540;2024-01-30T11:46:09;3.80;;;2.13;;
83125;SDS011;73488;47.234;-1.540;2024-01-30T11:48:35;6.38;;;2.20;;
83125;SDS011;73488;47.234;-1.540;2024-01-30T11:51:00;7.55;;;2.75;;
83125;SDS011;73488;47.234;-1.540;2024-01-30T11:53:26;162.02;;;67.80;;
83125;SDS011;73488;47.234;-1.540;2024-01-30T11:55:52;260.73;;;129.65;;
83125;SDS011;73488;47.234;-1.540;2024-01-30T11:58:17;226.70;;;105.07;;
83125;SDS011;73488;47.234;-1.540;2024-01-30T12:00:52;264.55;;;128.18;;
83125;SDS011;73488;47.234;-1.540;2024-01-30T12:03:18;261.42;;;132.50;;
83125;SDS011;73488;47.234;-1.540;2024-01-30T12:05:43;241.07;;;115.40;;
83125;SDS011;73488;47.234;-1.540;2024-01-30T12:08:14;192.23;;;99.32;;
83125;SDS011;73488;47.234;-1.540;2024-01-30T12:10:41;175.18;;;84.45;;
83125;SDS011;73488;47.234;-1.540;2024-01-30T12:13:07;149.75;;;73.60;;
83125;SDS011;73488;47.234;-1.540;2024-01-30T12:15:32;148.85;;;68.88;;
83125;SDS011;73488;47.234;-1.540;2024-01-30T12:18:07;141.75;;;66.65;;
83125;SDS011;73488;47.234;-1.540;2024-01-30T12:20:32;29.50;;;13.77;;
83125;SDS011;73488;47.234;-1.540;2024-01-30T12:22:58;13.35;;;7.20;;
83125;SDS011;73488;47.234;-1.540;2024-01-30T12:25:23;5.93;;;3.25;;
83125;SDS011;73488;47.234;-1.540;2024-01-30T12:27:49;5.05;;;2.60;;
83125;SDS011;73488;47.234;-1.540;2024-01-30T12:30:16;3.35;;;1.75;;
83125;SDS011;73488;47.234;-1.540;2024-01-30T12:32:43;3.03;;;1.75;;
83125;SDS011;73488;47.234;-1.540;2024-01-30T12:35:12;3.20;;;1.42;;
83125;SDS011;73488;47.234;-1.540;2024-01-30T12:37:39;2.03;;;1.25;;
83125;SDS011;73488;47.234;-1.540;2024-01-30T12:40:05;1.67;;;0.60;;
83125;SDS011;73488;47.234;-1.540;2024-01-30T12:42:32;1.60;;;1.23;;
83125;SDS011;73488;47.234;-1.540;2024-01-30T12:44:58;2.47;;;1.30;;
83125;SDS011;73488;47.234;-1.540;2024-01-30T12:47:24;1.95;;;1.52;;
83125;SDS011;73488;47.234;-1.540;2024-01-30T12:49:49;2.47;;;1.52;;
83125;SDS011;73488;47.234;-1.540;2024-01-30T12:54:43;3.03;;;1.33;;
83125;SDS011;73488;47.234;-1.540;2024-01-30T12:57:09;2.22;;;2.00;;
83125;SDS011;73488;47.234;-1.540;2024-01-30T12:59:35;2.75;;;1.88;;
83125;SDS011;73488;47.234;-1.540;2024-01-30T13:02:00;1.70;;;1.17;;
83125;SDS011;73488;47.234;-1.540;2024-01-30T13:04:27;2.55;;;1.67;;
83125;SDS011;73488;47.234;-1.540;2024-01-30T13:06:53;2.30;;;1.60;;
83125;SDS011;73488;47.234;-1.540;2024-01-30T13:09:18;2.83;;;1.92;;
83125;SDS011;73488;47.234;-1.540;2024-01-30T13:11:44;2.58;;;1.50;;
83125;SDS011;73488;47.234;-1.540;2024-01-30T13:14:09;1.75;;;1.60;;
83125;SDS011;73488;47.234;-1.540;2024-01-30T13:16:34;1.35;;;1.25;;
83125;SDS011;73488;47.234;-1.540;2024-01-30T13:19:00;2.70;;;1.40;;
83125;SDS011;73488;47.234;-1.540;2024-01-30T13:21:27;2.58;;;1.15;;
83125;SDS011;73488;47.234;-1.540;2024-01-30T13:23:52;1.77;;;1.15;;
83125;SDS011;73488;47.234;-1.540;2024-01-30T13:26:19;2.03;;;1.70;;
83125;SDS011;73488;47.234;-1.540;2024-01-30T13:28:45;6.25;;;1.63;;
83125;SDS011;73488;47.234;-1.540;2024-01-30T13:31:11;1.60;;;1.25;;
83125;SDS011;73488;47.234;-1.540;2024-01-30T13:33:37;1.83;;;1.27;;
83125;SDS011;73488;47.234;-1.540;2024-01-30T13:36:02;2.05;;;1.27;;
83125;SDS011;73488;47.234;-1.540;2024-01-30T13:38:28;2.47;;;1.42;;
83125;SDS011;73488;47.234;-1.540;2024-01-30T13:40:53;1.50;;;1.17;;
83125;SDS011;73488;47.234;-1.540;2024-01-30T13:43:19;1.77;;;1.30;;
83125;SDS011;73488;47.234;-1.540;2024-01-30T13:45:45;1.40;;;1.25;;
83125;SDS011;73488;47.234;-1.540;2024-01-30T13:48:11;3.00;;;0.85;;
83125;SDS011;73488;47.234;-1.540;2024-01-30T13:50:37;1.80;;;1.30;;
83125;SDS011;73488;47.234;-1.540;2024-01-30T13:53:02;1.88;;;1.52;;
83125;SDS011;73488;47.234;-1.540;2024-01-30T13:55:29;1.63;;;1.17;;
83125;SDS011;73488;47.234;-1.540;2024-01-30T13:57:55;1.50;;;1.35;;
83125;SDS011;73488;47.234;-1.540;2024-01-30T14:00:21;1.73;;;0.90;;
83125;SDS011;73488;47.234;-1.540;2024-01-30T14:02:47;1.80;;;0.80;;
83125;SDS011;73488;47.234;-1.540;2024-01-30T14:05:13;1.77;;;1.60;;
83125;SDS011;73488;47.234;-1.540;2024-01-30T14:07:39;1.95;;;1.50;;
83125;SDS011;73488;47.234;-1.540;2024-01-30T14:10:05;1.58;;;0.60;;
83125;SDS011;73488;47.234;-1.540;2024-01-30T14:12:31;2.00;;;1.75;;
83125;SDS011;73488;47.234;-1.540;2024-01-30T14:14:57;2.15;;;1.25;;
83125;SDS011;73488;47.234;-1.540;2024-01-30T14:17:22;3.20;;;1.83;;
83125;SDS011;73488;47.234;-1.540;2024-01-30T14:19:48;1.80;;;1.45;;
83125;SDS011;73488;47.234;-1.540;2024-01-30T14:22:13;1.88;;;1.73;;
83125;SDS011;73488;47.234;-1.540;2024-01-30T14:24:39;3.97;;;1.85;;
83125;SDS011;73488;47.234;-1.540;2024-01-30T14:27:04;3.20;;;1.45;;
83125;SDS011;73488;47.234;-1.540;2024-01-30T14:29:30;2.35;;;1.67;;
83125;SDS011;73488;47.234;-1.540;2024-01-30T14:31:55;1.67;;;1.30;;
83125;SDS011;73488;47.234;-1.540;2024-01-30T14:34:22;1.40;;;1.27;;
83125;SDS011;73488;47.234;-1.540;2024-01-30T14:36:47;2.53;;;1.83;;
83125;SDS011;73488;47.234;-1.540;2024-01-30T14:39:13;2.65;;;1.58;;
83125;SDS011;73488;47.234;-1.540;2024-01-30T14:41:38;1.85;;;1.52;;